createdAt,value
2023-04-15T00:00:56.738Z,8.65
2023-04-15T00:03:23.708Z,8.63
2023-04-15T00:05:51.975Z,8.61
2023-04-15T00:08:18.970Z,8.52
2023-04-15T00:10:45.684Z,8.58
2023-04-15T00:13:12.657Z,8.50
2023-04-15T00:15:39.453Z,8.52
2023-04-15T00:18:06.191Z,8.50
2023-04-15T00:20:32.943Z,8.39
2023-04-15T00:23:02.719Z,8.36
2023-04-15T00:25:29.523Z,8.40
2023-04-15T00:27:56.416Z,8.38
2023-04-15T00:30:23.356Z,8.22
2023-04-15T00:32:50.111Z,8.17
2023-04-15T00:35:21.274Z,8.31
2023-04-15T00:37:48.419Z,8.38
2023-04-15T00:40:19.070Z,8.35
2023-04-15T00:42:46.018Z,8.29
2023-04-15T00:45:13.759Z,8.24
2023-04-15T00:47:43.081Z,8.25
2023-04-15T00:50:10.845Z,8.19
2023-04-15T00:52:38.473Z,8.10
2023-04-15T00:55:06.695Z,8.07
2023-04-15T00:57:35.730Z,8.01
2023-04-15T01:00:02.901Z,8.02
2023-04-15T01:02:29.970Z,8.03
2023-04-15T01:04:56.974Z,7.99
2023-04-15T01:07:24.117Z,8.04
2023-04-15T01:09:51.687Z,7.98
2023-04-15T01:12:20.414Z,7.99
2023-04-15T01:14:48.890Z,7.99
2023-04-15T01:17:15.978Z,7.98
2023-04-15T01:19:43.062Z,8.09
2023-04-15T01:22:10.251Z,8.03
2023-04-15T01:24:38.683Z,8.00
2023-04-15T01:27:06.940Z,7.96
2023-04-15T01:29:38.209Z,8.00
2023-04-15T01:32:05.764Z,8.07
2023-04-15T01:34:35.016Z,8.10
2023-04-15T01:37:02.564Z,8.28
2023-04-15T01:39:29.361Z,8.35
2023-04-15T01:41:56.930Z,8.29
2023-04-15T01:44:25.902Z,8.26
2023-04-15T01:46:52.762Z,8.21
2023-04-15T01:49:20.440Z,8.20
2023-04-15T01:51:47.371Z,8.09
2023-04-15T01:54:14.188Z,8.05
2023-04-15T01:56:41.096Z,8.13
2023-04-15T01:59:08.028Z,8.09
2023-04-15T02:01:36.322Z,8.12
2023-04-15T02:04:03.446Z,8.03
2023-04-15T02:06:31.571Z,8.07
2023-04-15T02:08:58.448Z,7.99
2023-04-15T02:11:25.398Z,7.99
2023-04-15T02:13:53.006Z,8.00
2023-04-15T02:16:20.429Z,7.95
2023-04-15T02:18:48.718Z,7.85
2023-04-15T02:21:15.442Z,7.76
2023-04-15T02:23:42.311Z,7.69
2023-04-15T02:26:11.711Z,7.78
2023-04-15T02:28:38.843Z,7.78
2023-04-15T02:31:06.511Z,7.74
2023-04-15T02:33:33.395Z,7.68
2023-04-15T02:36:02.688Z,7.64
2023-04-15T02:38:29.565Z,7.64
2023-04-15T02:40:56.308Z,7.64
2023-04-15T02:43:23.204Z,7.61
2023-04-15T02:45:51.409Z,7.60
2023-04-15T02:48:18.350Z,7.57
2023-04-15T02:50:46.370Z,7.61
2023-04-15T02:53:15.980Z,7.63
2023-04-15T02:55:42.881Z,7.58
2023-04-15T02:58:09.876Z,7.60
2023-04-15T03:00:37.205Z,7.68
2023-04-15T03:03:06.853Z,7.73
2023-04-15T03:05:33.898Z,7.69
2023-04-15T03:08:03.740Z,7.63
2023-04-15T03:10:31.908Z,7.50
2023-04-15T03:12:58.766Z,7.48
2023-04-15T03:15:25.656Z,7.45
2023-04-15T03:17:53.921Z,7.44
2023-04-15T03:20:20.916Z,7.39
2023-04-15T03:22:48.585Z,7.28
2023-04-15T03:25:15.749Z,7.27
2023-04-15T03:27:44.792Z,7.18
2023-04-15T03:30:13.277Z,7.18
2023-04-15T03:32:41.173Z,7.14
2023-04-15T03:35:09.434Z,7.12
2023-04-15T03:37:36.365Z,7.06
2023-04-15T03:40:03.204Z,7.13
2023-04-15T03:42:29.927Z,7.18
2023-04-15T03:44:58.083Z,7.14
2023-04-15T03:47:24.922Z,7.11
2023-04-15T03:49:51.704Z,7.07
2023-04-15T03:52:18.516Z,6.98
2023-04-15T03:54:45.301Z,7.00
2023-04-15T03:57:12.033Z,7.02
2023-04-15T03:59:38.974Z,7.02
2023-04-15T04:02:07.285Z,6.96
2023-04-15T04:04:34.380Z,6.84
2023-04-15T04:07:01.205Z,6.80
2023-04-15T04:09:28.087Z,6.67
2023-04-15T04:11:55.097Z,6.58
2023-04-15T04:14:21.956Z,6.51
2023-04-15T04:16:49.146Z,6.49
2023-04-15T04:19:17.426Z,6.48
2023-04-15T04:21:44.145Z,6.45
2023-04-15T04:24:10.955Z,6.49
2023-04-15T04:26:37.931Z,6.53
2023-04-15T04:29:04.687Z,6.52
2023-04-15T04:31:31.544Z,6.51
2023-04-15T04:33:58.316Z,6.52
2023-04-15T04:36:26.462Z,6.62
2023-04-15T04:38:53.742Z,6.63
2023-04-15T04:41:20.625Z,6.62
2023-04-15T04:43:47.479Z,6.57
2023-04-15T04:46:14.267Z,6.55
2023-04-15T04:48:41.022Z,6.56
2023-04-15T04:51:08.019Z,6.70
2023-04-15T04:53:36.476Z,6.63
2023-04-15T04:56:03.566Z,6.64
2023-04-15T04:58:30.685Z,6.69
2023-04-15T05:00:57.472Z,6.72
2023-04-15T05:03:24.491Z,6.73
2023-04-15T05:05:51.369Z,6.77
2023-04-15T05:08:18.517Z,6.81
2023-04-15T05:10:46.732Z,6.84
2023-04-15T05:13:13.469Z,6.84
2023-04-15T05:15:40.436Z,7.01
2023-04-15T05:18:07.408Z,7.16
2023-04-15T05:20:34.196Z,7.18
2023-04-15T05:23:01.351Z,7.18
2023-04-15T05:25:28.147Z,7.09
2023-04-15T05:27:56.317Z,7.06
2023-04-15T05:30:23.130Z,7.03
2023-04-15T05:32:50.309Z,7.03
2023-04-15T05:35:17.250Z,7.07
2023-04-15T05:37:44.133Z,7.15
2023-04-15T05:40:11.391Z,7.20
2023-04-15T05:42:38.189Z,7.26
2023-04-15T05:45:07.542Z,7.28
2023-04-15T05:47:34.529Z,7.30
2023-04-15T05:50:01.336Z,7.31
2023-04-15T05:52:28.066Z,7.36
2023-04-15T05:54:54.840Z,7.42
2023-04-15T05:57:21.608Z,7.44
2023-04-15T05:59:48.725Z,7.62
2023-04-15T06:02:16.866Z,7.75
2023-04-15T06:04:43.817Z,7.78
2023-04-15T06:07:11.082Z,7.97
2023-04-15T06:09:37.757Z,8.03
2023-04-15T06:12:04.696Z,8.12
2023-04-15T06:14:31.417Z,8.31
2023-04-15T06:16:58.133Z,8.23
2023-04-15T06:19:26.180Z,8.21
2023-04-15T06:21:53.040Z,8.27
2023-04-15T06:24:19.938Z,8.40
2023-04-15T06:26:47.003Z,8.32
2023-04-15T06:29:13.978Z,8.28
2023-04-15T06:31:40.839Z,8.31
2023-04-15T06:34:07.622Z,8.58
2023-04-15T06:36:35.811Z,8.70
2023-04-15T06:39:02.849Z,8.86
2023-04-15T06:41:30.044Z,8.78
2023-04-15T06:43:56.898Z,8.77
2023-04-15T06:46:24.226Z,9.01
2023-04-15T06:48:51.239Z,9.04
2023-04-15T06:51:18.112Z,8.90
2023-04-15T06:53:46.165Z,8.69
2023-04-15T06:56:12.876Z,8.80
2023-04-15T06:58:39.958Z,8.92
2023-04-15T07:01:06.941Z,9.00
2023-04-15T07:03:34.162Z,9.24
2023-04-15T07:06:00.970Z,9.37
2023-04-15T07:08:28.829Z,9.51
2023-04-15T07:10:57.132Z,9.36
2023-04-15T07:13:24.831Z,9.12
2023-04-15T07:15:54.617Z,9.25
2023-04-15T07:18:21.525Z,9.21
2023-04-15T07:20:48.593Z,9.16
2023-04-15T07:23:15.556Z,9.04
2023-04-15T07:25:42.749Z,9.08
2023-04-15T07:28:14.749Z,9.19
2023-04-15T07:30:41.740Z,9.15
2023-04-15T07:33:08.512Z,9.30
2023-04-15T07:35:35.268Z,9.41
2023-04-15T07:38:02.043Z,9.55
2023-04-15T07:40:28.755Z,9.63
2023-04-15T07:42:56.727Z,9.53
2023-04-15T07:45:24.845Z,9.77
2023-04-15T07:47:51.635Z,9.98
2023-04-15T07:50:18.594Z,9.79
2023-04-15T07:52:45.503Z,10.20
2023-04-15T07:55:12.238Z,10.04
2023-04-15T07:57:38.999Z,10.32
2023-04-15T08:00:07.769Z,10.52
2023-04-15T08:02:42.635Z,10.57
2023-04-15T08:05:10.123Z,10.48
2023-04-15T08:07:37.306Z,10.62
2023-04-15T08:10:04.933Z,11.21
2023-04-15T08:12:31.854Z,11.47
2023-04-15T08:14:59.287Z,11.61
2023-04-15T08:17:26.174Z,10.89
2023-04-15T08:19:54.414Z,10.64
2023-04-15T08:22:22.353Z,10.67
2023-04-15T08:24:49.587Z,11.62
2023-04-15T08:27:16.283Z,11.74
2023-04-15T08:29:43.082Z,11.94
2023-04-15T08:32:10.178Z,12.24
2023-04-15T08:34:36.995Z,12.50
2023-04-15T08:37:05.133Z,12.87
2023-04-15T08:39:32.009Z,12.64
2023-04-15T08:42:01.833Z,12.07
2023-04-15T08:44:30.623Z,11.28
2023-04-15T08:47:01.431Z,11.26
2023-04-15T08:49:30.141Z,10.80
2023-04-15T08:51:59.544Z,11.20
2023-04-15T08:54:28.142Z,11.35
2023-04-15T08:56:55.864Z,11.78
2023-04-15T08:59:23.143Z,11.75
2023-04-15T09:01:50.544Z,11.62
2023-04-15T09:04:17.962Z,11.79
2023-04-15T09:06:44.858Z,11.79
2023-04-15T09:09:12.798Z,12.01
2023-04-15T09:11:41.394Z,12.41
2023-04-15T09:14:08.172Z,12.00
2023-04-15T09:16:56.974Z,12.49
2023-04-15T09:19:29.600Z,12.36
2023-04-15T09:21:58.901Z,12.46
2023-04-15T09:24:34.073Z,12.71
2023-04-15T09:27:04.193Z,13.00
2023-04-15T09:29:39.006Z,13.28
2023-04-15T09:32:14.321Z,13.46
2023-04-15T09:34:41.043Z,12.42
2023-04-15T09:37:34.554Z,13.16
2023-04-15T09:40:01.438Z,12.91
2023-04-15T09:42:29.985Z,13.41
2023-04-15T09:45:07.964Z,12.97
2023-04-15T09:47:35.195Z,12.09
2023-04-15T09:50:02.209Z,12.74
2023-04-15T09:52:29.316Z,13.19
2023-04-15T09:54:57.806Z,12.53
2023-04-15T09:57:24.885Z,13.35
2023-04-15T09:59:53.352Z,12.24
2023-04-15T10:02:20.713Z,12.23
2023-04-15T10:04:48.569Z,13.25
2023-04-15T10:07:15.725Z,13.54
2023-04-15T10:09:44.164Z,12.73
2023-04-15T10:12:11.311Z,13.71
2023-04-15T10:14:39.137Z,13.65
2023-04-15T10:17:11.345Z,12.59
2023-04-15T10:19:38.508Z,13.14
2023-04-15T10:22:06.535Z,13.19
2023-04-15T10:24:33.871Z,12.78
2023-04-15T10:27:01.118Z,13.70
2023-04-15T10:29:28.088Z,12.39
2023-04-15T10:31:55.614Z,12.17
2023-04-15T10:34:24.636Z,12.61
2023-04-15T10:36:51.770Z,13.47
2023-04-15T10:39:41.281Z,13.53
2023-04-15T10:42:09.496Z,13.26
2023-04-15T10:44:37.076Z,12.78
2023-04-15T10:47:10.060Z,11.71
2023-04-15T10:49:43.832Z,11.97
2023-04-15T10:52:10.805Z,12.16
2023-04-15T10:54:37.583Z,13.88
2023-04-15T10:57:09.822Z,13.79
2023-04-15T10:59:38.798Z,14.11
2023-04-15T11:02:07.235Z,12.93
2023-04-15T11:04:55.573Z,12.11
2023-04-15T11:07:38.174Z,13.39
2023-04-15T11:10:52.139Z,12.82
2023-04-15T11:13:25.418Z,12.85
2023-04-15T11:15:56.951Z,14.38
2023-04-15T11:18:24.803Z,13.38
2023-04-15T11:20:54.311Z,14.32
2023-04-15T11:23:28.519Z,14.11
2023-04-15T11:25:56.073Z,13.84
2023-04-15T11:28:26.383Z,13.50
2023-04-15T11:30:53.067Z,12.87
2023-04-15T11:33:19.858Z,12.55
2023-04-15T11:35:46.729Z,12.63
2023-04-15T11:38:15.763Z,13.50
2023-04-15T11:40:46.246Z,13.22
2023-04-15T11:43:15.240Z,12.10
2023-04-15T11:45:50.830Z,11.90
2023-04-15T11:48:18.235Z,11.88
2023-04-15T11:50:45.124Z,11.57
2023-04-15T11:53:14.126Z,11.39
2023-04-15T11:55:46.748Z,11.26
2023-04-15T11:58:16.348Z,11.63
2023-04-15T12:00:48.153Z,12.80
2023-04-15T12:03:20.213Z,12.76
2023-04-15T12:06:10.148Z,12.08
2023-04-15T12:09:04.203Z,11.70
2023-04-15T12:11:33.689Z,11.12
2023-04-15T12:14:03.771Z,11.74
2023-04-15T12:16:31.091Z,11.95
2023-04-15T12:18:59.656Z,11.88
2023-04-15T12:21:28.636Z,12.50
2023-04-15T12:23:56.782Z,11.73
2023-04-15T12:26:30.574Z,10.90
2023-04-15T12:29:01.933Z,11.03
2023-04-15T12:31:29.230Z,11.14
2023-04-15T12:33:56.520Z,10.94
2023-04-15T12:36:23.394Z,10.84
2023-04-15T12:38:50.626Z,10.81
2023-04-15T12:41:17.417Z,10.69
2023-04-15T12:43:46.016Z,10.35
2023-04-15T12:46:13.633Z,10.23
2023-04-15T12:48:40.720Z,10.35
2023-04-15T12:51:07.530Z,9.93
2023-04-15T12:53:34.600Z,10.07
2023-04-15T12:56:01.401Z,10.17
2023-04-15T12:58:28.542Z,10.61
2023-04-15T13:00:56.717Z,10.42
2023-04-15T13:03:23.854Z,10.40
2023-04-15T13:05:50.826Z,10.32
2023-04-15T13:08:17.624Z,10.17
2023-04-15T13:10:44.572Z,9.89
2023-04-15T13:13:11.375Z,10.12
2023-04-15T13:15:38.193Z,10.63
2023-04-15T13:18:07.431Z,10.80
2023-04-15T13:20:34.222Z,10.81
2023-04-15T13:23:01.227Z,10.55
2023-04-15T13:25:28.319Z,10.34
2023-04-15T13:27:55.865Z,10.25
2023-04-15T13:30:22.768Z,10.37
2023-04-15T13:32:50.552Z,10.46
2023-04-15T13:35:19.277Z,10.44
2023-04-15T13:37:46.153Z,10.31
2023-04-15T13:40:13.113Z,10.10
2023-04-15T13:42:39.951Z,9.83
2023-04-15T13:45:07.993Z,9.97
2023-04-15T13:47:34.829Z,9.87
2023-04-15T13:50:02.124Z,9.85
2023-04-15T13:52:30.302Z,9.91
2023-04-15T13:55:08.408Z,9.87
2023-04-15T13:57:44.048Z,10.10
2023-04-15T14:00:12.049Z,9.98
2023-04-15T14:02:40.924Z,9.81
2023-04-15T14:05:08.748Z,9.75
2023-04-15T14:07:37.437Z,9.47
2023-04-15T14:10:05.135Z,9.49
2023-04-15T14:12:32.058Z,9.45
2023-04-15T14:14:58.882Z,9.53
2023-04-15T14:17:25.815Z,9.45
2023-04-15T14:19:52.571Z,9.48
2023-04-15T14:22:19.658Z,9.44
2023-04-15T14:24:47.869Z,9.42
2023-04-15T14:27:14.676Z,9.36
2023-04-15T14:29:41.460Z,9.29
2023-04-15T14:32:11.812Z,9.43
2023-04-15T14:34:39.361Z,9.41
2023-04-15T14:37:06.467Z,9.51
2023-04-15T14:39:33.438Z,9.41
2023-04-15T14:42:01.991Z,9.37
2023-04-15T14:44:29.104Z,9.17
2023-04-15T14:46:56.077Z,8.93
2023-04-15T14:49:23.029Z,9.06
2023-04-15T14:51:49.816Z,9.33
2023-04-15T14:54:16.712Z,9.37
2023-04-15T14:56:43.415Z,9.34
2023-04-15T14:59:11.538Z,9.40
2023-04-15T15:01:38.538Z,9.39
2023-04-15T15:04:05.545Z,9.27
2023-04-15T15:06:32.508Z,8.97
2023-04-15T15:08:59.455Z,9.00
2023-04-15T15:11:26.553Z,8.88
2023-04-15T15:13:53.318Z,9.06
2023-04-15T15:16:21.545Z,8.97
2023-04-15T15:18:48.453Z,8.85
2023-04-15T15:21:15.257Z,8.79
2023-04-15T15:23:42.168Z,8.88
2023-04-15T15:26:09.099Z,8.78
2023-04-15T15:28:36.196Z,8.85
2023-04-15T15:31:02.970Z,8.85
2023-04-15T15:33:31.391Z,8.87
2023-04-15T15:35:58.287Z,8.60
2023-04-15T15:38:25.084Z,8.41
2023-04-15T15:40:51.895Z,8.39
2023-04-15T15:43:18.647Z,8.38
2023-04-15T15:45:45.798Z,8.48
2023-04-15T15:48:12.622Z,8.63
2023-04-15T15:50:40.874Z,8.47
2023-04-15T15:53:07.666Z,8.42
2023-04-15T15:55:34.446Z,8.40
2023-04-15T15:58:01.253Z,8.40
2023-04-15T16:00:28.050Z,8.44
2023-04-15T16:03:06.678Z,8.48
2023-04-15T16:05:34.694Z,8.42
2023-04-15T16:08:02.923Z,8.45
2023-04-15T16:10:29.936Z,8.31
2023-04-15T16:12:57.898Z,8.31
2023-04-15T16:15:27.683Z,8.26
2023-04-15T16:17:54.209Z,8.39
2023-04-15T16:20:20.913Z,8.27
2023-04-15T16:22:47.896Z,8.07
2023-04-15T16:25:16.018Z,8.12
2023-04-15T16:27:57.170Z,8.16
2023-04-15T16:30:26.383Z,8.27
2023-04-15T16:32:53.280Z,8.30
2023-04-15T16:35:20.217Z,8.22
2023-04-15T16:37:46.966Z,8.26
2023-04-15T16:40:13.962Z,8.34
2023-04-15T16:42:42.091Z,8.42
2023-04-15T16:45:09.755Z,8.39
2023-04-15T16:47:36.538Z,8.34
2023-04-15T16:50:03.383Z,8.30
2023-04-15T16:52:30.164Z,8.23
2023-04-15T16:54:56.962Z,8.26
2023-04-15T16:57:24.670Z,8.21
2023-04-15T16:59:57.725Z,8.32
2023-04-15T17:02:25.169Z,8.17
2023-04-15T17:04:52.725Z,8.18
2023-04-15T17:07:19.432Z,8.06
2023-04-15T17:09:46.302Z,8.08
2023-04-15T17:12:14.109Z,8.01
2023-04-15T17:14:40.777Z,7.92
2023-04-15T17:17:08.855Z,8.02
2023-04-15T17:19:35.802Z,8.07
2023-04-15T17:22:05.740Z,8.00
2023-04-15T17:24:32.766Z,8.03
2023-04-15T17:27:00.309Z,8.04
2023-04-15T17:29:27.742Z,7.97
2023-04-15T17:31:55.008Z,7.89
2023-04-15T17:34:23.430Z,7.85
2023-04-15T17:36:50.285Z,7.84
2023-04-15T17:39:17.093Z,7.86
2023-04-15T17:41:44.048Z,7.81
2023-04-15T17:44:10.829Z,7.92
2023-04-15T17:46:38.016Z,7.91
2023-04-15T17:49:04.983Z,7.93
2023-04-15T17:51:33.421Z,7.91
2023-04-15T17:54:06.980Z,8.01
2023-04-15T17:56:36.287Z,7.93
2023-04-15T17:59:03.314Z,7.90
2023-04-15T18:01:30.289Z,7.98
2023-04-15T18:04:06.972Z,7.97
2023-04-15T18:06:36.808Z,7.70
2023-04-15T18:09:07.430Z,7.92
2023-04-15T18:11:34.666Z,7.85
2023-04-15T18:14:03.157Z,7.92
2023-04-15T18:16:30.217Z,7.85
2023-04-15T18:18:57.184Z,7.86
2023-04-15T18:21:25.363Z,7.82
2023-04-15T18:23:53.699Z,7.81
2023-04-15T18:26:20.790Z,7.79
2023-04-15T18:28:47.683Z,7.82
2023-04-15T18:31:15.697Z,7.83
2023-04-15T18:33:42.566Z,7.85
2023-04-15T18:36:10.103Z,7.87
2023-04-15T18:38:37.127Z,7.89
2023-04-15T18:41:05.552Z,7.83
2023-04-15T18:43:32.500Z,7.86
2023-04-15T18:45:59.364Z,7.82
2023-04-15T18:48:26.539Z,7.85
2023-04-15T18:50:53.385Z,7.83
2023-04-15T18:53:20.268Z,7.83
2023-04-15T18:55:47.013Z,7.80
2023-04-15T18:58:15.310Z,7.85
2023-04-15T19:00:42.808Z,7.79
2023-04-15T19:03:09.867Z,7.79
2023-04-15T19:05:36.893Z,7.78
2023-04-15T19:08:03.672Z,7.79
2023-04-15T19:10:30.769Z,7.82
2023-04-15T19:12:57.531Z,7.84
2023-04-15T19:15:25.735Z,7.84
2023-04-15T19:17:52.498Z,7.82
2023-04-15T19:20:19.291Z,7.85
2023-04-15T19:22:46.375Z,7.86
2023-04-15T19:25:13.240Z,7.86
2023-04-15T19:27:39.929Z,7.85
2023-04-15T19:30:08.292Z,7.85
2023-04-15T19:32:36.523Z,7.83
2023-04-15T19:35:03.480Z,7.84
2023-04-15T19:37:30.190Z,7.82
2023-04-15T19:39:56.935Z,7.81
2023-04-15T19:42:23.895Z,7.81
2023-04-15T19:44:50.655Z,7.79
2023-04-15T19:47:17.540Z,7.83
2023-04-15T19:49:45.690Z,7.81
2023-04-15T19:52:13.135Z,7.82
2023-04-15T19:54:39.811Z,7.81
2023-04-15T19:57:06.653Z,7.81
2023-04-15T19:59:33.796Z,7.83
2023-04-15T20:02:00.775Z,7.79
2023-04-15T20:04:28.023Z,7.81
2023-04-15T20:06:56.585Z,7.87
2023-04-15T20:09:23.329Z,7.84
2023-04-15T20:12:44.960Z,7.88
2023-04-15T20:14:37.131Z,7.87
2023-04-15T20:17:03.970Z,7.87
2023-04-15T20:19:30.954Z,7.90
2023-04-15T20:21:59.129Z,7.89
2023-04-15T20:24:26.039Z,7.91
2023-04-15T20:26:52.902Z,7.95
2023-04-15T20:29:19.887Z,7.96
2023-04-15T20:31:46.721Z,7.97
2023-04-15T20:34:13.820Z,7.98
2023-04-15T20:36:40.531Z,8.01
2023-04-15T20:39:08.795Z,8.04
2023-04-15T20:41:35.606Z,8.03
2023-04-15T20:44:02.534Z,8.02
2023-04-15T20:46:30.625Z,7.99
2023-04-15T20:48:57.471Z,7.98
2023-04-15T20:51:24.272Z,7.98
2023-04-15T20:53:51.006Z,8.01
2023-04-15T20:56:19.164Z,7.99
2023-04-15T20:58:45.859Z,8.04
2023-04-15T21:01:12.900Z,8.01
2023-04-15T21:03:39.891Z,7.97
2023-04-15T21:06:06.831Z,7.99
2023-04-15T21:08:33.956Z,7.97
2023-04-15T21:11:00.798Z,7.96
2023-04-15T21:13:28.872Z,7.92
2023-04-15T21:15:55.603Z,7.94
2023-04-15T21:18:22.730Z,7.94
2023-04-15T21:20:56.321Z,7.93
2023-04-15T21:23:23.145Z,7.90
2023-04-15T21:25:49.901Z,7.93
2023-04-15T21:28:16.604Z,7.90
2023-04-15T21:30:45.035Z,7.92
2023-04-15T21:33:11.792Z,7.90
2023-04-15T21:35:39.005Z,7.90
2023-04-15T21:38:06.003Z,7.88
2023-04-15T21:40:32.984Z,7.88
2023-04-15T21:42:59.901Z,7.85
2023-04-15T21:45:26.747Z,7.86
2023-04-15T21:48:06.078Z,7.83
2023-04-15T21:50:35.916Z,7.87
2023-04-15T21:53:02.867Z,7.84
2023-04-15T21:55:29.653Z,7.82
2023-04-15T21:57:56.863Z,7.82
2023-04-15T22:00:24.834Z,7.81
2023-04-15T22:02:52.276Z,7.81
2023-04-15T22:05:21.115Z,7.80
2023-04-15T22:07:48.022Z,7.80
2023-04-15T22:10:14.936Z,7.79
2023-04-15T22:12:42.104Z,7.79
2023-04-15T22:15:09.863Z,7.78
2023-04-15T22:17:36.719Z,7.71
2023-04-15T22:20:03.777Z,7.70
2023-04-15T22:22:43.495Z,7.65
2023-04-15T22:25:11.000Z,7.61
2023-04-15T22:27:39.263Z,7.54
2023-04-15T22:30:07.415Z,7.47
2023-04-15T22:32:34.286Z,7.53
2023-04-15T22:35:01.373Z,7.46
2023-04-15T22:37:35.747Z,7.42
2023-04-15T22:40:03.049Z,7.39
2023-04-15T22:42:30.222Z,7.41
2023-04-15T22:44:57.617Z,7.39
2023-04-15T22:47:24.674Z,7.40
2023-04-15T22:49:52.068Z,7.35
2023-04-15T22:52:29.538Z,7.38
2023-04-15T22:54:58.649Z,7.35
2023-04-15T22:57:25.393Z,7.32
2023-04-15T22:59:52.115Z,7.30
2023-04-15T23:02:19.041Z,7.30
2023-04-15T23:04:46.243Z,7.29
2023-04-15T23:07:13.193Z,7.32
2023-04-15T23:09:40.052Z,7.29
2023-04-15T23:12:08.177Z,7.30
2023-04-15T23:14:34.810Z,7.30
2023-04-15T23:17:01.578Z,7.31
2023-04-15T23:19:28.326Z,7.34
2023-04-15T23:21:55.002Z,7.33
2023-04-15T23:24:21.659Z,7.29
2023-04-15T23:26:48.521Z,7.28
2023-04-15T23:29:16.472Z,7.29
2023-04-15T23:31:43.230Z,7.26
2023-04-15T23:34:10.195Z,7.27
2023-04-15T23:36:36.961Z,7.29
2023-04-15T23:39:03.905Z,7.29
2023-04-15T23:41:30.651Z,7.31
2023-04-15T23:43:57.383Z,7.33
2023-04-15T23:46:25.607Z,7.31
2023-04-15T23:48:52.414Z,7.32
2023-04-15T23:51:19.204Z,7.32
2023-04-15T23:53:46.305Z,7.31
2023-04-15T23:56:13.203Z,7.34
2023-04-15T23:58:40.127Z,7.34
